This is the latest recevied weather packets stored in our database for station/object VK4JLM-1. If no packets are shown the sender has not sent any weather packets the latest 10 day(s).
| Time | Temp. | Humidity | Pressure | Rain* | Wind** | Luminosity | Snow |
|---|---|---|---|---|---|---|---|
| 1777681921 | 26.67° C | 67% | 1024.2 hPa | 0.25 mm | - | - | - |
| 1777680961 | 28.33° C | 62% | 1024.3 hPa | 0.25 mm | - | - | - |
| 1777679806 | 25° C | 74% | 1024.5 hPa | 0.25 mm | - | - | - |
| 1777678831 | 27.78° C | 65% | 1024.4 hPa | 0.25 mm | - | - | - |
| 1777676676 | 29.44° C | 62% | 1024.3 hPa | 0 mm | - | - | - |
| 1777675596 | 28.89° C | 63% | 1024.2 hPa | 0 mm | - | - | - |
| 1777674607 | 26.11° C | 72% | 1024.3 hPa | 0 mm | - | - | - |
| 1777673586 | 28.89° C | 63% | 1024.2 hPa | 0 mm | - | - | - |
| 1777672571 | 28.33° C | 63% | 1024.1 hPa | 0 mm | - | - | - |
| 1777671481 | 26.67° C | 68% | 1024.2 hPa | 0.25 mm | - | - | - |
| 1777670296 | 20.56° C | 92% | 1024.1 hPa | 0.25 mm | - | - | - |
| 1777669226 | 19.44° C | 96% | 1024.1 hPa | 0.25 mm | - | - | - |
| 1777668250 | 19.44° C | 98% | 1024 hPa | 0.25 mm | - | - | - |
| 1777667136 | 18.89° C | 98% | 1023.9 hPa | 0 mm | - | - | - |
| 1777665980 | 18.89° C | 97% | 1023.9 hPa | 0 mm | - | - | - |
| 1777663850 | 18.33° C | 100% | 1023.5 hPa | 0 mm | - | - | - |
| 1777662706 | 18.89° C | 98% | 1023.5 hPa | 0.25 mm | - | - | - |
| 1777661716 | 18.89° C | 98% | 1023.4 hPa | 0.25 mm | - | - | - |
| 1777660576 | 18.33° C | 100% | 1023.4 hPa | 0.25 mm | - | - | - |
| 1777659601 | 18.89° C | 99% | 1023.2 hPa | 0 mm | - | - | - |
| 1777658430 | 18.89° C | 98% | 1022.9 hPa | 0 mm | - | - | - |
| 1777657330 | 18.89° C | 97% | 1022.9 hPa | 0.76 mm | - | - | - |
| 1777656290 | 18.89° C | 98% | 1023.2 hPa | 7.11 mm | - | - | - |
| 1777655246 | 18.89° C | 99% | 1023.3 hPa | 7.11 mm | - | - | - |
| 1777654261 | 18.89° C | 98% | 1023.6 hPa | 7.11 mm | - | - | - |
* Rain latest hour (hover to see other rain measurements)
** Current wind speed in m/s (hover to see current wind gust speed)